Aktuell sind 709 Gäste und 4 Mitglieder online

[source: ADDS]
METAR
EDVE 261950Z 27006KT 240V300 9999 BKN042 BKN068 08/05 Q1016

EDDV 262250Z 20003KT 9999 FEW045 06/04 Q1016

ETHS 262220Z 24006KT 9999 MIFG FEW030TCU BKN060 06/05 Q1016 BLU

ETHC 262220Z 25002KT 9999 FEW060 06/05 Q1016 BLU+

EDVK 262220Z 21003KT CAVOK 05/05 Q1017

TAF
TAF EDDV 261700Z 2618/2718 27006KT 9999 SCT025 PROB30 TEMPO 2618/2620 27015G25KT SHRA BKN020CB BECMG 2618/2620 21007KT BECMG 2715/2717 13006KT

TAF AMD ETHS 261453Z 2614/2623 27010G20KT 9999 NSW SCT020 BKN030 TEMPO 2614/2619 28012G25KT 5000 SHRA BKN012TCU PROB30 2614/2618 29020G32KT 3000 TSRA BKN010CB BECMG 2618/2620 24010KT 9999 NSW SCT020 CANCEL 1500Z

TAF AMD ETHC 261425Z 2614/2623 27015KT 9999 NSW SCT020 BKN050 TEMPO 2614/2619 28018G30KT 5000 SHRA FEW010 BKN015CB PROB30 2614/2619 29020G35KT 2000 TSRA SCT008 BKN012CB BECMG 2619/2621 24005KT 9999 NSW SCT050 CANCEL 1530

TAF EDVK 262000Z 2621/2703 21004KT 9999 SCT045 TEMPO 2621/2622 26012KT SHRA BKN020TCU

SR / SS: 03:55 / 18:35 UTC (EDVE 2018-04-26)
Hallo Hermann! Willkommen im Verein und always happy landings! +++ Willkommen im Verein, Wolfgang und Manfred! Viel Spaß und always happy landings! +++ Herzlich Willkommen, Max. Viel Spaß im Verein und bei der Ausbildung! +++ Hallo Ronald! Willkommen in der FFG und always happy landings! +++ Hallo Tibor! Willkommen im Verein und viel Spaß bei der Ausbildung! +++ Der März bringt uns drei neue Mitglieder! Hallo Stephan, Roland und Wanja! Always happy landings und an Wanja: Viel Spaß bei der Ausbildung!

wenig -> mittel -> viel

Professionelle Piloten arbeiten mit Checkliste
Ausdrucken und abarbeiten! Vorbereitete Links helfen bei der Beschaffung der notwendigen Informationen.

Weiterlesen ...

 Zugang zur DFS. Auf dem FFG-Account sind alle erforderlichen Daten unserer Maschinen hinterlegt. Jedes Mitglied hat hier volle Rechte! Zugangsdaten gibt es im Internen Bereich.

Hier gibt es die AIP mit allen erforderlichen Karten die im Abo der FFG liegen zum Download für unsere Mitglieder.

Letztes NOTAM EDVE
von 22.04.2018 1045Z bis 27.04.2018 1500Z
DAILY 0500-1500
APRON EAST OF TWR PARTLY CLOSED DUE TO WIP. LIMITED PARKING SPACE AVAILABLE ONLY.

Letztes NOTAM EDCB
von 10.05.2018 0800Z bis 10.05.2018 1600Z
SPECIAL ACTIVITY AREA ESTABLISHED 2NM RADIUS CENTERED ON 514447N 0111352E BALLENSTEDT FOR AEROBATIC FLIGHTS AND AIR DISPLAY.
GND- [more]


Letztes NOTAM EDBC
von 07.04.2018 1434Z bis 27.05.2018 1014Z
COCHSTEDT CTR DEACTIVATED.

Letztes NOTAM EDVM
von 16.04.2018 0500Z bis 18.05.2018 1600Z
CRANE 420M N OF AIRFIELD. ELEV 406FT (124M) / 124FT (38M) GND. JIB 20M. DAY AND NIGHT MARKED.

Letztes NOTAM EDOV
von 27.04.2018 0700Z bis 29.04.2018 2359Z
TWY F CLOSED BTN TWY A AND TWY T1, TWY B CLOSED. FUELSTATION AND APRON CLOSED. FUELING NOT POSSIBLE. DUE TO EVENT.

Letztes NOTAM EDDV
von 23.04.2018 0505Z bis 21.07.2018 2359Z
LOCATOR (LO) HW 358 OUT OF SERVICE.

Letztes NOTAM EDVK
von 07.04.2016 0530Z bis PERM
HEL LDG/DEP HEL AREA SOUTH HAVE TO AVOID TO OVERFLY THE CAMP SW OF HELIPORT.) DUPE

Letztes NOTAM EDVS
von 16.03.2018 1205Z bis 31.05.2018 2359Z
NORTHERN TWY CLOSED. USE OF TWYS AND SAFETY STRIP LIMITED DUE TO DAMAGE BY GAME.

EDCB.png          aerodata150     Radio38